Latest Weather Observations for Coober Pedy Airport

IDS60801

Issued at 3:31 pm CST Saturday 30 May 2015 (issued every 30 minutes, with the page automatically refreshed every 10 minutes)

About weather observations | Map of weather stations | Latest weather observations for SA | Other Formats
Station Details ID: 016090 Name: COOBER PEDY AIRPORT Lat: -29.03 Lon: 134.72 Height: 225.0 m
Data from the previous 72 hours. | See also: Recent months at Coober Pedy Airport
Date/Time
CST
Temp
°C
App
Temp
°C
Dew
Point
Rel
Hum
%
Delta-T
°C
Wind Press
QNH
hPa
Press
MSL
hPa
Rain
since 9 am
mm
Dir
 
Spd
km/h
Gust
km/h
Spd
kts
Gust
kts
30/03:30pm 12.5 8.5 10.4 87 1.1 SSE 22 28 12 15 1021.4 1021.1 2.2
30/03:00pm 12.4 8.8 10.6 89 0.9 S 20 26 11 14 1021.9 1021.6 2.2
30/02:30pm 12.4 7.8 11.0 91 0.7 S 26 32 14 17 1021.7 1021.4 2.2
30/02:00pm 12.5 9.2 11.7 95 0.4 SSE 20 24 11 13 1021.5 1021.2 2.2
30/01:35pm 12.4 8.3 11.3 93 0.6 SSE 24 33 13 18 1021.5 - 2.2
30/01:34pm 12.5 8.0 11.4 93 0.6 SSE 26 33 14 18 1021.6 1021.3 2.2
30/01:30pm 12.5 7.6 11.4 93 0.6 SSE 28 33 15 18 1021.0 1020.7 2.2
30/01:00pm 12.6 8.6 11.8 95 0.4 SE 24 32 13 17 1021.9 1021.6 2.2
30/12:30pm 12.4 7.9 11.5 94 0.5 SE 26 35 14 19 1022.7 1022.4 2.2
30/12:00pm 12.3 8.3 11.8 97 0.3 SSE 24 30 13 16 1023.1 1022.8 2.2
30/11:30am 12.1 8.0 11.6 97 0.3 SSE 24 30 13 16 1023.9 1023.6 2.2
30/11:00am 11.9 7.4 11.4 97 0.3 S 26 32 14 17 1024.5 1024.2 1.6
30/10:30am 11.8 8.4 11.3 97 0.3 SE 20 28 11 15 1024.5 1024.2 0.6
30/10:00am 11.8 8.4 11.3 97 0.3 SE 20 28 11 15 1024.4 1024.1 0.4
30/09:30am 11.7 7.5 11.2 97 0.3 SSE 24 28 13 15 1024.3 1024.0 0.0
30/09:00am 11.6 7.4 11.1 97 0.3 SE 24 30 13 16 1024.3 1024.0 12.2
30/08:30am 11.6 7.4 11.1 97 0.3 SSE 24 32 13 17 1024.3 1024.0 11.6
30/08:00am 11.6 6.6 11.1 97 0.3 SSE 28 33 15 18 1023.8 1023.5 11.4
30/07:30am 11.9 7.4 11.4 97 0.3 SSE 26 33 14 18 1023.7 1023.4 11.4
30/07:00am 11.9 7.8 11.4 97 0.3 SSE 24 30 13 16 1023.8 1023.5 11.4
30/06:30am 12.0 8.9 11.5 97 0.3 SSE 19 28 10 15 1023.8 1023.5 11.2
30/06:00am 11.9 7.4 11.4 97 0.3 SE 26 32 14 17 1023.3 1023.0 11.2
30/05:30am 12.4 8.4 11.9 97 0.3 SSE 24 28 13 15 1022.8 1022.5 11.0
30/05:00am 12.6 9.6 12.1 97 0.3 SE 19 24 10 13 1021.8 1021.5 10.6
30/04:30am 12.6 10.0 12.1 97 0.3 SE 17 24 9 13 1022.7 1022.4 10.6
30/04:00am 12.7 9.8 12.2 97 0.3 SSE 19 24 10 13 1023.0 1022.7 10.6
30/03:30am 12.8 10.7 12.3 97 0.3 SE 15 19 8 10 1022.8 1022.5 10.2
30/03:00am 12.8 10.3 12.3 97 0.3 ESE 17 22 9 12 1022.7 1022.4 9.2
30/02:30am 12.7 9.6 12.2 97 0.3 ESE 20 24 11 13 1022.5 1022.1 8.6
30/02:00am 12.7 9.6 12.2 97 0.3 SE 20 26 11 14 1022.7 1022.4 8.4
30/01:30am 12.8 9.7 12.3 97 0.3 ESE 20 28 11 15 1022.5 1022.1 8.4
30/01:00am 13.0 10.2 12.5 97 0.3 ESE 19 24 10 13 1022.9 1022.6 8.4
30/12:30am 12.9 10.8 12.4 97 0.3 SE 15 20 8 11 1023.0 1022.7 8.4
30/12:00am 12.9 10.8 12.4 97 0.3 ESE 15 19 8 10 1023.4 1023.1 8.4
 
Date/Time
CST
Temp
°C
App
Temp
°C
Dew
Point
Rel
Hum
%
Delta-T
°C
Wind Press
QNH
hPa
Press
MSL
hPa
Rain
since 9 am
mm
Dir
 
Spd
km/h
Gust
km/h
Spd
kts
Gust
kts
29/11:30pm 12.8 9.9 12.3 97 0.3 ESE 19 20 10 11 1023.3 1023.0 8.4
29/11:00pm 12.7 9.8 12.2 97 0.3 ESE 19 26 10 14 1024.0 1023.7 8.4
29/10:39pm 12.7 9.8 12.2 97 0.3 ESE 19 26 10 14 1024.1 1023.8 8.4
29/10:38pm 12.7 9.6 12.2 97 0.3 E 20 26 11 14 1024.1 1023.8 8.4
29/10:37pm 12.7 9.6 12.2 97 0.3 E 20 26 11 14 1024.1 - 8.4
29/10:30pm 12.7 8.8 12.2 97 0.3 E 24 30 13 16 1024.0 1023.7 8.4
29/10:20pm 12.8 9.9 12.3 97 0.3 E 19 24 10 13 1024.1 1023.8 8.4
29/10:19pm 12.8 10.3 12.3 97 0.3 E 17 22 9 12 1024.1 - 8.4
29/10:00pm 12.8 10.3 12.3 97 0.3 E 17 20 9 11 1024.4 1024.1 8.4
29/09:30pm 13.1 10.7 12.6 97 0.3 ESE 17 22 9 12 1024.3 1024.0 8.2
29/09:00pm 13.0 10.2 12.5 97 0.3 ESE 19 22 10 12 1024.1 1023.8 8.2
29/08:59pm 13.1 10.3 12.6 97 0.3 ESE 19 24 10 13 1024.1 1023.8 8.2
29/08:58pm 13.1 10.3 12.6 97 0.3 ESE 19 24 10 13 1024.2 - 8.2
29/08:30pm 13.1 9.4 12.6 97 0.3 E 24 30 13 16 1024.1 1023.8 8.2
29/08:00pm 13.3 10.6 12.8 97 0.3 ESE 19 24 10 13 1024.1 1023.8 8.0
29/07:30pm 13.4 10.7 12.9 97 0.3 ESE 19 26 10 14 1023.9 1023.6 7.6
29/07:00pm 13.9 12.1 13.4 97 0.3 ESE 15 19 8 10 1023.6 1023.3 7.4
29/06:30pm 13.9 11.7 13.4 97 0.3 ESE 17 20 9 11 1023.0 1022.7 7.0
29/06:00pm 13.8 11.6 13.3 97 0.3 SE 17 22 9 12 1022.9 1022.6 6.6
29/05:30pm 14.0 11.3 13.5 97 0.3 SSE 20 26 11 14 1022.7 1022.4 6.4
29/05:00pm 14.1 12.0 13.6 97 0.3 SE 17 22 9 12 1022.4 1022.0 6.4
29/04:30pm 14.0 11.3 13.5 97 0.3 SE 20 26 11 14 1022.3 1021.9 6.4
29/04:00pm 14.0 11.5 13.5 97 0.3 SE 19 24 10 13 1022.4 1022.0 6.0
29/03:30pm 14.1 11.6 13.6 97 0.3 SE 19 24 10 13 1022.5 1022.1 5.0
29/03:00pm 14.2 11.8 13.7 97 0.3 SE 19 24 10 13 1022.6 1022.3 3.6
29/02:30pm 14.2 12.1 13.7 97 0.3 SE 17 22 9 12 1022.2 1021.8 2.6
29/02:00pm 14.2 11.6 13.7 97 0.3 SE 20 24 11 13 1022.3 1021.9 2.2
29/01:30pm 14.3 11.7 13.8 97 0.3 SE 20 26 11 14 1022.7 1022.4 2.2
29/01:10pm 14.3 11.3 13.8 97 0.3 SE 22 30 12 16 1022.9 1022.6 2.0
29/01:09pm 14.3 11.3 13.8 97 0.3 ESE 22 30 12 16 1022.9 - 2.0
29/01:08pm 14.3 11.3 13.8 97 0.3 ESE 22 30 12 16 1022.9 - 2.0
29/01:00pm 14.2 10.8 13.7 97 0.3 ESE 24 28 13 15 1023.0 1022.7 2.0
29/12:50pm 14.2 10.8 13.7 97 0.3 SE 24 28 13 15 1023.1 1022.8 2.0
29/12:30pm 14.0 11.3 13.5 97 0.3 SE 20 28 11 15 1023.6 1023.3 1.6
29/12:00pm 14.4 11.8 13.9 97 0.3 SE 20 26 11 14 1023.9 1023.6 1.4
29/11:30am 14.3 11.7 13.8 97 0.3 ESE 20 26 11 14 1023.9 1023.6 0.4
29/11:00am 14.4 11.5 13.9 97 0.3 ESE 22 28 12 15 1024.2 1023.9 0.2
29/10:30am 14.4 11.5 13.9 97 0.3 ESE 22 28 12 15 1024.3 1024.0 0.2
29/10:00am 14.3 10.9 13.8 97 0.3 ESE 24 30 13 16 1024.3 1024.0 0.2
29/09:30am 14.3 11.7 13.8 97 0.3 ESE 20 26 11 14 1024.1 1023.8 0.2
29/09:15am 14.2 11.6 13.7 97 0.3 ESE 20 26 11 14 1024.1 1023.8 0.0
29/09:14am 14.2 11.6 13.7 97 0.3 ESE 20 24 11 13 1024.1 - 0.0
29/09:00am 14.1 11.1 13.6 97 0.3 ESE 22 28 12 15 1023.9 1023.6 -
29/08:30am 14.2 11.6 13.7 97 0.3 ESE 20 24 11 13 1023.7 1023.4 -
29/08:00am 14.1 12.0 13.6 97 0.3 SE 17 22 9 12 1023.3 1023.0 -
29/07:30am 14.0 11.3 13.5 97 0.3 ESE 20 26 11 14 1023.1 1022.8 -
29/07:00am 13.9 11.2 13.4 97 0.3 ESE 20 24 11 13 1022.8 1022.5 -
29/06:30am 13.9 11.4 13.4 97 0.3 ESE 19 22 10 12 1022.6 1022.3 -
29/06:00am 14.1 11.4 13.6 97 0.3 ESE 20 30 11 16 1022.3 1021.9 -
29/05:30am 14.2 12.5 13.7 97 0.3 SE 15 20 8 11 1022.5 1022.1 -
29/05:00am 14.2 12.1 13.7 97 0.3 SE 17 22 9 12 1022.3 1021.9 -
29/04:30am 14.2 12.1 13.7 97 0.3 ESE 17 20 9 11 1022.2 1021.8 -
29/04:00am 14.1 11.4 13.6 97 0.3 ESE 20 24 11 13 1022.3 1021.9 -
29/03:30am 14.1 11.1 13.6 97 0.3 SE 22 28 12 15 1022.2 1021.8 -
29/03:25am 14.1 11.1 13.6 97 0.3 SE 22 30 12 16 1022.3 1021.9 -
29/03:24am 14.1 11.1 13.6 97 0.3 SE 22 30 12 16 1022.1 - 3.8
29/03:00am 14.4 11.5 13.9 97 0.3 SE 22 32 12 17 1022.3 1021.9 2.0
29/02:30am 14.6 11.7 14.1 97 0.3 SE 22 28 12 15 1022.4 1022.0 -
29/02:00am 14.8 12.6 14.3 97 0.3 SE 19 22 10 12 1022.5 1022.1 -
29/01:30am 14.9 12.5 14.4 97 0.3 SE 20 28 11 15 1022.5 1022.1 -
29/01:00am 15.2 13.1 14.7 97 0.3 SE 19 22 10 12 1022.1 1021.7 -
29/12:30am 15.9 16.0 15.4 97 0.3 ESE 9 13 5 7 1022.3 1021.9 -
29/12:00am 16.0 16.5 15.5 97 0.3 E 7 9 4 5 1022.2 1021.8 -
 
Date/Time
CST
Temp
°C
App
Temp
°C
Dew
Point
Rel
Hum
%
Delta-T
°C
Wind Press
QNH
hPa
Press
MSL
hPa
Rain
since 9 am
mm
Dir
 
Spd
km/h
Gust
km/h
Spd
kts
Gust
kts
28/11:30pm 16.1 16.2 15.6 97 0.3 ENE 9 11 5 6 1022.2 1021.8 -
28/11:00pm 16.0 16.6 15.7 98 0.2 ENE 7 9 4 5 1022.2 1021.8 -
28/10:59pm 16.0 16.5 15.5 97 0.3 ENE 7 9 4 5 1022.1 - 2.0
28/10:48pm 16.1 16.6 15.6 97 0.3 ENE 7 7 4 4 1022.2 1021.8 -
28/10:47pm 16.0 16.7 15.5 97 0.3 ENE 6 7 3 4 1022.1 - 2.0
28/10:30pm 16.1 16.8 15.6 97 0.3 ENE 6 7 3 4 1022.2 1021.8 -
28/10:00pm 16.1 16.6 15.6 97 0.3 ENE 7 9 4 5 1022.3 1021.9 -
28/09:59pm 16.1 16.6 15.6 97 0.3 ENE 7 11 4 6 1022.3 - 1.8
28/09:30pm 16.2 16.8 15.7 97 0.3 ENE 7 9 4 5 1021.9 1021.6 -
28/09:00pm 16.2 16.0 15.7 97 0.3 ENE 11 13 6 7 1021.8 1021.5 -
28/08:30pm 16.3 16.1 15.8 97 0.3 ENE 11 13 6 7 1021.7 1021.4 -
28/08:00pm 16.4 16.3 15.9 97 0.3 ENE 11 15 6 8 1021.1 1020.8 -
28/07:30pm 16.6 16.9 16.1 97 0.3 NE 9 11 5 6 1021.5 1021.2 -
28/07:00pm 16.7 17.1 16.2 97 0.3 NE 9 11 5 6 1021.0 1020.7 -
28/06:30pm 16.9 18.9 15.9 94 0.6 CALM 0 0 0 0 1021.0 1020.7 -
28/06:00pm 17.0 17.7 15.7 92 0.8 NNE 6 9 3 5 1020.7 1020.4 -
28/05:30pm 17.2 17.4 15.7 91 0.9 NNE 9 9 5 5 1020.4 1020.1 -
28/05:00pm 17.2 17.6 15.2 88 1.2 NNE 7 9 4 5 1020.4 1020.1 -
28/04:49pm 17.3 18.3 15.3 88 1.2 NNE 4 7 2 4 1020.3 1020.0 -
28/04:48pm 17.3 18.4 15.5 89 1.1 NNE 4 7 2 4 1020.3 - 1.8
28/04:36pm 17.4 19.1 15.2 87 1.3 CALM 0 0 0 0 1020.3 1020.0 -
28/04:35pm 17.4 19.2 15.4 88 1.2 CALM 0 0 0 0 1020.3 - 1.8
28/04:30pm 17.5 19.3 15.5 88 1.2 CALM 0 0 0 0 1020.3 1020.0 -
28/04:00pm 17.3 18.2 15.1 87 1.3 NNE 4 6 2 3 1020.2 1019.9 -
28/03:56pm 17.3 18.6 15.1 87 1.3 NNE 2 6 1 3 1020.2 - 1.8
28/03:30pm 17.4 17.8 15.4 88 1.2 NE 7 9 4 5 1020.1 1019.8 1.8
28/03:00pm 17.3 17.8 15.5 89 1.1 ENE 7 9 4 5 1019.9 1019.6 1.8
28/02:30pm 17.1 17.3 15.8 92 0.8 NE 9 11 5 6 1020.1 1019.8 1.8
28/02:18pm 17.0 17.5 15.5 91 0.9 NNE 7 9 4 5 1020.4 1020.1 1.8
28/02:17pm 16.9 17.3 15.4 91 0.9 NNE 7 9 4 5 1020.4 - 1.8
28/02:00pm 17.0 17.2 15.7 92 0.8 NNE 9 11 5 6 1020.4 1020.1 1.8
28/01:54pm 16.8 17.2 15.3 91 0.9 NNE 7 11 4 6 1020.5 1020.2 1.8
28/01:53pm 16.9 17.4 15.6 92 0.8 NNE 7 11 4 6 1020.5 - 1.8
28/01:32pm 16.8 17.3 15.5 92 0.8 NNE 7 9 4 5 1020.7 1020.4 1.8
28/01:30pm 16.8 17.3 15.5 92 0.8 NNE 7 9 4 5 1020.8 1020.5 1.8
28/01:06pm 16.7 17.3 15.7 94 0.6 NNE 7 9 4 5 1021.1 - 1.8
28/01:00pm 16.8 17.4 15.8 94 0.6 NNE 7 9 4 5 1021.1 1020.8 1.8
28/12:56pm 16.8 17.5 16.0 95 0.5 NNE 7 9 4 5 1021.2 - 1.8
28/12:43pm 16.6 17.2 15.8 95 0.5 NNE 7 11 4 6 1021.3 1021.0 1.8
28/12:30pm 16.5 16.8 16.0 97 0.3 NNE 9 11 5 6 1021.5 1021.2 1.8
28/12:00pm 16.4 17.0 15.9 97 0.3 NNE 7 11 4 6 1021.8 1021.5 1.8
28/11:30am 16.3 16.5 15.8 97 0.3 NNE 9 11 5 6 1022.3 1021.9 1.6
28/11:21am 16.2 16.4 15.7 97 0.3 NNE 9 11 5 6 1022.5 1022.1 1.6
28/11:20am 16.2 16.4 15.7 97 0.3 NNE 9 11 5 6 1022.4 - 1.6
28/11:00am 16.3 16.9 15.8 97 0.3 NE 7 9 4 5 1022.6 1022.3 1.6
28/10:52am 16.2 16.8 15.7 97 0.3 NE 7 9 4 5 1022.6 1022.3 1.2
28/10:51am 16.1 16.6 15.6 97 0.3 NE 7 9 4 5 1022.6 - 1.2
28/10:30am 16.1 16.6 15.6 97 0.3 NE 7 11 4 6 1022.6 1022.3 1.0
28/10:12am 16.1 16.2 15.6 97 0.3 ENE 9 11 5 6 1022.5 1022.1 1.0
28/10:11am 16.2 16.4 15.7 97 0.3 ENE 9 11 5 6 1022.5 - 1.0
28/10:00am 16.1 16.2 15.6 97 0.3 ENE 9 11 5 6 1022.5 1022.1 0.8
28/09:30am 15.9 15.6 15.4 97 0.3 NE 11 11 6 6 1022.4 1022.0 0.4
28/09:00am 15.8 15.8 15.3 97 0.3 E 9 9 5 5 1022.1 1021.7 13.6
28/08:30am 15.7 16.1 15.2 97 0.3 SE 7 9 4 5 1021.8 1021.5 13.0
28/08:00am 15.7 15.3 15.2 97 0.3 SSE 11 13 6 7 1021.7 1021.4 11.4
28/07:30am 15.7 15.3 15.2 97 0.3 S 11 13 6 7 1021.4 1021.1 10.8
28/07:00am 15.8 15.4 15.3 97 0.3 S 11 13 6 7 1021.2 1020.9 8.2
28/06:30am 15.9 16.0 15.4 97 0.3 SSE 9 13 5 7 1020.5 1020.2 7.6
28/06:00am 15.8 15.8 15.3 97 0.3 SSW 9 11 5 6 1020.3 1020.0 7.0
28/05:30am 15.9 15.6 15.4 97 0.3 S 11 13 6 7 1020.1 1019.8 6.2
28/05:00am 15.8 15.8 15.3 97 0.3 SSE 9 11 5 6 1019.7 1019.4 5.2
28/04:30am 15.7 17.4 15.2 97 0.3 CALM 0 0 0 0 1019.7 1019.4 4.2
28/04:00am 15.7 16.3 15.2 97 0.3 WNW 6 7 3 4 1020.1 1019.8 3.4
28/03:30am 15.7 16.0 14.9 95 0.5 W 7 9 4 5 1020.0 1019.7 1.6
28/03:00am 16.0 17.4 14.4 90 0.9 CALM 0 0 0 0 1019.7 1019.4 0.6
28/02:30am 16.2 17.4 13.7 85 1.4 CALM 0 0 0 0 1019.6 1019.3 0.4
28/02:00am 16.1 15.9 13.6 85 1.4 ENE 7 9 4 5 1019.1 1018.8 0.4
28/01:30am 16.2 14.9 13.7 85 1.4 ENE 13 15 7 8 1019.1 1018.8 0.4
28/01:00am 16.0 15.0 13.5 85 1.4 ENE 11 13 6 7 1019.2 1018.9 0.4
28/12:30am 16.4 15.4 13.5 83 1.6 ENE 11 13 6 7 1019.6 1019.3 0.4
28/12:00am 16.9 16.5 14.0 83 1.7 ENE 9 11 5 6 1020.1 1019.8 0.4
 
Date/Time
CST
Temp
°C
App
Temp
°C
Dew
Point
Rel
Hum
%
Delta-T
°C
Wind Press
QNH
hPa
Press
MSL
hPa
Rain
since 9 am
mm
Dir
 
Spd
km/h
Gust
km/h
Spd
kts
Gust
kts
27/11:30pm 16.6 16.4 13.7 83 1.6 NE 7 9 4 5 1020.3 1020.0 0.4
27/11:00pm 16.7 15.8 13.8 83 1.7 NE 11 13 6 7 1020.2 1019.9 0.4
27/10:30pm 17.0 16.5 13.9 82 1.8 NNE 9 11 5 6 1020.6 1020.3 0.4
27/10:00pm 17.3 16.1 14.0 81 1.9 NNE 13 13 7 7 1020.8 1020.5 0.4
27/09:30pm 17.4 17.1 14.3 82 1.8 NE 9 11 5 6 1020.9 1020.6 0.4
27/09:00pm 17.4 17.0 14.1 81 1.9 NE 9 9 5 5 1020.7 1020.4 0.4
27/08:30pm 17.5 17.1 14.2 81 1.9 NE 9 11 5 6 1020.7 1020.4 0.4
27/08:00pm 17.6 17.3 14.3 81 1.9 NE 9 9 5 5 1020.4 1020.1 0.4
27/07:30pm 18.3 17.8 13.8 75 2.6 NNE 9 11 5 6 1020.5 1020.2 0.4
27/07:00pm 18.5 18.5 13.6 73 2.8 N 6 6 3 3 1020.3 1020.0 0.4
27/06:30pm 18.9 18.7 13.7 72 3.0 N 7 7 4 4 1019.9 1019.6 0.4
27/06:00pm 19.1 20.2 13.5 70 3.2 CALM 0 0 0 0 1019.6 1019.3 0.4
27/05:30pm 19.6 19.3 12.6 64 4.0 N 6 6 3 3 1019.2 1018.9 0.4
27/05:00pm 20.2 19.3 12.7 62 4.3 NNW 9 13 5 7 1019.1 1018.8 0.4
27/04:30pm 20.8 19.9 12.5 59 4.7 N 9 13 5 7 1019.2 1018.9 0.4
27/04:00pm 20.7 19.3 12.1 58 4.9 N 11 15 6 8 1019.4 1019.1 0.4

Other Formats:

Comma delimited format used in spreadsheet applications
http://www.bom.gov.au/fwo/IDS60801/IDS60801.95458.axf

JavaScript Object Notation format (JSON) in row-major order
http://www.bom.gov.au/fwo/IDS60801/IDS60801.95458.json